Melcher Dallas, Iowa
Current Conditions -  °F | °C
As of 1:15 AM on Thursday 18 Dec 2014 (Local Time) from KOXV Reporting Station
Overcast Overcast  
Wind Chill: 21°   Ceiling: 8500
Heat Index: 21°   Visibility: 10mi
Dew Point: 16°   Wind: 0mph
Humidity: 80%   Direction: NA
Pressure: 30.28"   Gusts: NA
Location:  41.2269°N, 93.1611°W
Report Text: KOXV 180715Z AUTO 00000KT 10SM OVC085 M06/M09 A3028 RMK AO2
Loading
Personal Weather Stations






























Interactive Weather Map New forecast layout! Learn more

10-Day Weather Forecast

Advertisements
Track Severe Weather on mobile